sensor_id;sensor_type;location;lat;lon;timestamp;P1;durP1;ratioP1;P2;durP2;ratioP2
40807;SDS011;26523;52.504;13.498;2022-12-08T00:01:25;6.00;;;2.58;;
40807;SDS011;26523;52.504;13.498;2022-12-08T00:03:52;6.53;;;2.60;;
40807;SDS011;26523;52.504;13.498;2022-12-08T00:09:48;5.63;;;2.13;;
40807;SDS011;26523;52.504;13.498;2022-12-08T00:12:10;4.45;;;2.50;;
40807;SDS011;26523;52.504;13.498;2022-12-08T00:14:43;5.57;;;2.13;;
40807;SDS011;26523;52.504;13.498;2022-12-08T00:17:11;7.32;;;2.40;;
40807;SDS011;26523;52.504;13.498;2022-12-08T00:19:39;5.63;;;2.45;;
40807;SDS011;26523;52.504;13.498;2022-12-08T00:22:06;5.13;;;2.28;;
40807;SDS011;26523;52.504;13.498;2022-12-08T00:24:34;7.00;;;2.50;;
40807;SDS011;26523;52.504;13.498;2022-12-08T00:27:03;11.18;;;2.60;;
40807;SDS011;26523;52.504;13.498;2022-12-08T00:29:29;4.32;;;2.20;;
40807;SDS011;26523;52.504;13.498;2022-12-08T00:31:55;8.73;;;2.83;;
40807;SDS011;26523;52.504;13.498;2022-12-08T00:34:21;9.45;;;2.83;;
40807;SDS011;26523;52.504;13.498;2022-12-08T00:36:47;7.05;;;2.70;;
40807;SDS011;26523;52.504;13.498;2022-12-08T00:39:14;8.02;;;3.05;;
40807;SDS011;26523;52.504;13.498;2022-12-08T00:41:41;4.72;;;2.25;;
40807;SDS011;26523;52.504;13.498;2022-12-08T00:44:26;7.97;;;2.60;;
40807;SDS011;26523;52.504;13.498;2022-12-08T00:46:52;7.70;;;3.22;;
40807;SDS011;26523;52.504;13.498;2022-12-08T00:49:18;11.63;;;3.58;;
40807;SDS011;26523;52.504;13.498;2022-12-08T00:51:44;9.55;;;2.85;;
40807;SDS011;26523;52.504;13.498;2022-12-08T00:54:09;6.82;;;2.70;;
40807;SDS011;26523;52.504;13.498;2022-12-08T00:56:36;14.88;;;4.03;;
40807;SDS011;26523;52.504;13.498;2022-12-08T00:59:02;6.55;;;2.70;;
40807;SDS011;26523;52.504;13.498;2022-12-08T01:01:29;8.75;;;2.85;;
40807;SDS011;26523;52.504;13.498;2022-12-08T01:03:55;6.97;;;2.85;;
40807;SDS011;26523;52.504;13.498;2022-12-08T01:06:21;6.35;;;2.28;;
40807;SDS011;26523;52.504;13.498;2022-12-08T01:08:46;7.63;;;2.60;;
40807;SDS011;26523;52.504;13.498;2022-12-08T01:11:13;11.52;;;3.58;;
40807;SDS011;26523;52.504;13.498;2022-12-08T01:13:43;9.75;;;3.50;;
40807;SDS011;26523;52.504;13.498;2022-12-08T01:16:09;7.55;;;3.38;;
40807;SDS011;26523;52.504;13.498;2022-12-08T01:18:50;9.48;;;2.70;;
40807;SDS011;26523;52.504;13.498;2022-12-08T01:21:16;7.22;;;3.20;;
40807;SDS011;26523;52.504;13.498;2022-12-08T01:23:42;9.52;;;4.32;;
40807;SDS011;26523;52.504;13.498;2022-12-08T01:26:09;8.90;;;3.60;;
40807;SDS011;26523;52.504;13.498;2022-12-08T01:28:37;7.05;;;2.90;;
40807;SDS011;26523;52.504;13.498;2022-12-08T01:31:04;10.00;;;3.28;;
40807;SDS011;26523;52.504;13.498;2022-12-08T01:33:34;10.95;;;4.18;;
40807;SDS011;26523;52.504;13.498;2022-12-08T01:36:03;8.88;;;3.63;;
40807;SDS011;26523;52.504;13.498;2022-12-08T01:38:29;8.48;;;3.72;;
40807;SDS011;26523;52.504;13.498;2022-12-08T01:40:56;12.32;;;3.03;;
40807;SDS011;26523;52.504;13.498;2022-12-08T01:43:22;9.68;;;3.95;;
40807;SDS011;26523;52.504;13.498;2022-12-08T01:45:47;6.90;;;2.60;;
40807;SDS011;26523;52.504;13.498;2022-12-08T01:48:17;10.55;;;3.17;;
40807;SDS011;26523;52.504;13.498;2022-12-08T01:50:48;5.72;;;2.92;;
40807;SDS011;26523;52.504;13.498;2022-12-08T01:53:22;9.20;;;2.83;;
40807;SDS011;26523;52.504;13.498;2022-12-08T01:55:54;7.00;;;2.40;;
40807;SDS011;26523;52.504;13.498;2022-12-08T01:58:34;7.13;;;2.97;;
40807;SDS011;26523;52.504;13.498;2022-12-08T02:01:02;5.75;;;2.40;;
40807;SDS011;26523;52.504;13.498;2022-12-08T02:04:10;7.93;;;2.88;;
40807;SDS011;26523;52.504;13.498;2022-12-08T02:06:22;7.60;;;2.67;;
40807;SDS011;26523;52.504;13.498;2022-12-08T02:08:49;6.35;;;2.97;;
40807;SDS011;26523;52.504;13.498;2022-12-08T02:11:16;6.18;;;3.30;;
40807;SDS011;26523;52.504;13.498;2022-12-08T02:13:42;7.40;;;2.75;;
40807;SDS011;26523;52.504;13.498;2022-12-08T02:16:13;5.65;;;2.53;;
40807;SDS011;26523;52.504;13.498;2022-12-08T02:18:48;4.20;;;2.40;;
40807;SDS011;26523;52.504;13.498;2022-12-08T02:22:11;6.95;;;3.13;;
40807;SDS011;26523;52.504;13.498;2022-12-08T02:24:22;8.15;;;2.65;;
40807;SDS011;26523;52.504;13.498;2022-12-08T02:35:38;6.90;;;2.38;;
40807;SDS011;26523;52.504;13.498;2022-12-08T02:41:30;5.57;;;2.72;;
40807;SDS011;26523;52.504;13.498;2022-12-08T02:45:00;5.18;;;2.08;;
40807;SDS011;26523;52.504;13.498;2022-12-08T02:47:16;4.63;;;2.22;;
40807;SDS011;26523;52.504;13.498;2022-12-08T02:49:44;9.68;;;2.55;;
40807;SDS011;26523;52.504;13.498;2022-12-08T02:54:36;8.85;;;3.00;;
40807;SDS011;26523;52.504;13.498;2022-12-08T03:02:44;4.07;;;1.75;;
40807;SDS011;26523;52.504;13.498;2022-12-08T03:08:35;6.72;;;2.80;;
40807;SDS011;26523;52.504;13.498;2022-12-08T03:11:20;7.18;;;2.42;;
40807;SDS011;26523;52.504;13.498;2022-12-08T03:14:05;6.82;;;2.78;;
40807;SDS011;26523;52.504;13.498;2022-12-08T03:16:33;6.18;;;2.80;;
40807;SDS011;26523;52.504;13.498;2022-12-08T03:19:17;12.00;;;2.65;;
40807;SDS011;26523;52.504;13.498;2022-12-08T03:21:48;5.80;;;2.35;;
40807;SDS011;26523;52.504;13.498;2022-12-08T03:24:16;6.38;;;1.73;;
40807;SDS011;26523;52.504;13.498;2022-12-08T03:26:47;5.45;;;2.63;;
40807;SDS011;26523;52.504;13.498;2022-12-08T03:29:18;5.53;;;2.60;;
40807;SDS011;26523;52.504;13.498;2022-12-08T03:31:49;7.93;;;2.70;;
40807;SDS011;26523;52.504;13.498;2022-12-08T03:36:46;6.45;;;2.33;;
40807;SDS011;26523;52.504;13.498;2022-12-08T03:39:11;4.80;;;1.90;;
40807;SDS011;26523;52.504;13.498;2022-12-08T03:41:37;5.07;;;1.88;;
40807;SDS011;26523;52.504;13.498;2022-12-08T03:44:03;6.03;;;2.10;;
40807;SDS011;26523;52.504;13.498;2022-12-08T03:46:29;8.05;;;3.72;;
40807;SDS011;26523;52.504;13.498;2022-12-08T03:48:55;5.30;;;2.03;;
40807;SDS011;26523;52.504;13.498;2022-12-08T03:51:21;5.85;;;2.75;;
40807;SDS011;26523;52.504;13.498;2022-12-08T03:53:46;4.88;;;1.95;;
40807;SDS011;26523;52.504;13.498;2022-12-08T03:56:14;5.07;;;2.50;;
40807;SDS011;26523;52.504;13.498;2022-12-08T03:58:43;4.47;;;1.65;;
40807;SDS011;26523;52.504;13.498;2022-12-08T04:01:09;4.82;;;2.20;;
40807;SDS011;26523;52.504;13.498;2022-12-08T04:03:35;6.22;;;2.22;;
40807;SDS011;26523;52.504;13.498;2022-12-08T04:06:01;6.22;;;2.90;;
40807;SDS011;26523;52.504;13.498;2022-12-08T04:08:26;6.65;;;2.45;;
40807;SDS011;26523;52.504;13.498;2022-12-08T04:10:52;7.47;;;2.47;;
40807;SDS011;26523;52.504;13.498;2022-12-08T04:13:18;7.35;;;2.88;;
40807;SDS011;26523;52.504;13.498;2022-12-08T04:15:44;10.30;;;3.67;;
40807;SDS011;26523;52.504;13.498;2022-12-08T04:18:11;7.47;;;2.63;;
40807;SDS011;26523;52.504;13.498;2022-12-08T04:20:38;6.15;;;2.65;;
40807;SDS011;26523;52.504;13.498;2022-12-08T04:23:05;7.43;;;2.83;;
40807;SDS011;26523;52.504;13.498;2022-12-08T04:25:31;10.85;;;3.50;;
40807;SDS011;26523;52.504;13.498;2022-12-08T04:27:56;9.18;;;3.20;;
40807;SDS011;26523;52.504;13.498;2022-12-08T04:30:22;6.88;;;2.78;;
40807;SDS011;26523;52.504;13.498;2022-12-08T04:32:48;7.10;;;3.33;;
40807;SDS011;26523;52.504;13.498;2022-12-08T04:35:13;7.90;;;3.30;;
40807;SDS011;26523;52.504;13.498;2022-12-08T04:37:39;13.15;;;3.70;;
40807;SDS011;26523;52.504;13.498;2022-12-08T04:40:05;7.15;;;3.17;;
40807;SDS011;26523;52.504;13.498;2022-12-08T04:42:31;11.90;;;4.25;;
40807;SDS011;26523;52.504;13.498;2022-12-08T04:44:56;8.52;;;3.60;;
40807;SDS011;26523;52.504;13.498;2022-12-08T04:47:22;8.70;;;3.40;;
40807;SDS011;26523;52.504;13.498;2022-12-08T04:49:48;9.40;;;3.17;;
40807;SDS011;26523;52.504;13.498;2022-12-08T04:52:13;13.57;;;4.20;;
40807;SDS011;26523;52.504;13.498;2022-12-08T04:54:39;8.40;;;3.67;;
40807;SDS011;26523;52.504;13.498;2022-12-08T04:57:04;10.48;;;4.57;;
40807;SDS011;26523;52.504;13.498;2022-12-08T04:59:30;10.93;;;4.75;;
40807;SDS011;26523;52.504;13.498;2022-12-08T05:01:56;10.93;;;4.10;;
40807;SDS011;26523;52.504;13.498;2022-12-08T05:04:21;8.30;;;3.92;;
40807;SDS011;26523;52.504;13.498;2022-12-08T05:06:47;11.30;;;4.72;;
40807;SDS011;26523;52.504;13.498;2022-12-08T05:09:13;12.05;;;5.10;;
40807;SDS011;26523;52.504;13.498;2022-12-08T05:11:38;14.18;;;5.03;;
40807;SDS011;26523;52.504;13.498;2022-12-08T05:14:07;11.20;;;5.00;;
40807;SDS011;26523;52.504;13.498;2022-12-08T05:16:37;15.73;;;5.10;;
40807;SDS011;26523;52.504;13.498;2022-12-08T05:19:03;12.27;;;4.20;;
40807;SDS011;26523;52.504;13.498;2022-12-08T05:21:29;12.20;;;5.78;;
40807;SDS011;26523;52.504;13.498;2022-12-08T05:23:55;10.65;;;5.57;;
40807;SDS011;26523;52.504;13.498;2022-12-08T05:26:20;13.13;;;4.40;;
40807;SDS011;26523;52.504;13.498;2022-12-08T05:28:46;13.50;;;5.60;;
40807;SDS011;26523;52.504;13.498;2022-12-08T05:31:12;11.85;;;4.60;;
40807;SDS011;26523;52.504;13.498;2022-12-08T05:33:39;11.25;;;4.57;;
40807;SDS011;26523;52.504;13.498;2022-12-08T05:36:05;13.88;;;5.72;;
40807;SDS011;26523;52.504;13.498;2022-12-08T05:38:31;10.18;;;3.75;;
40807;SDS011;26523;52.504;13.498;2022-12-08T05:40:56;16.27;;;5.43;;
40807;SDS011;26523;52.504;13.498;2022-12-08T05:43:22;16.17;;;5.40;;
40807;SDS011;26523;52.504;13.498;2022-12-08T05:45:48;11.10;;;5.60;;
40807;SDS011;26523;52.504;13.498;2022-12-08T05:48:14;11.55;;;4.53;;
40807;SDS011;26523;52.504;13.498;2022-12-08T05:50:44;10.98;;;5.30;;
40807;SDS011;26523;52.504;13.498;2022-12-08T05:53:14;16.00;;;5.68;;
40807;SDS011;26523;52.504;13.498;2022-12-08T05:55:40;14.60;;;5.93;;
40807;SDS011;26523;52.504;13.498;2022-12-08T05:58:06;15.20;;;6.50;;
40807;SDS011;26523;52.504;13.498;2022-12-08T06:00:38;17.38;;;5.80;;
40807;SDS011;26523;52.504;13.498;2022-12-08T06:03:04;10.32;;;4.80;;
40807;SDS011;26523;52.504;13.498;2022-12-08T06:05:31;16.33;;;4.57;;
40807;SDS011;26523;52.504;13.498;2022-12-08T06:07:58;12.30;;;6.15;;
40807;SDS011;26523;52.504;13.498;2022-12-08T06:10:23;12.88;;;5.43;;
40807;SDS011;26523;52.504;13.498;2022-12-08T06:12:49;15.40;;;6.25;;
40807;SDS011;26523;52.504;13.498;2022-12-08T06:15:14;14.13;;;6.07;;
40807;SDS011;26523;52.504;13.498;2022-12-08T06:17:40;13.45;;;5.55;;
40807;SDS011;26523;52.504;13.498;2022-12-08T06:20:06;12.70;;;4.97;;
40807;SDS011;26523;52.504;13.498;2022-12-08T06:22:32;11.93;;;5.32;;
40807;SDS011;26523;52.504;13.498;2022-12-08T06:24:57;8.75;;;4.07;;
40807;SDS011;26523;52.504;13.498;2022-12-08T06:27:23;14.85;;;5.82;;
40807;SDS011;26523;52.504;13.498;2022-12-08T06:29:49;12.05;;;5.55;;
40807;SDS011;26523;52.504;13.498;2022-12-08T06:32:14;16.25;;;4.97;;
40807;SDS011;26523;52.504;13.498;2022-12-08T06:34:40;17.02;;;5.28;;
40807;SDS011;26523;52.504;13.498;2022-12-08T06:37:06;15.40;;;4.78;;
40807;SDS011;26523;52.504;13.498;2022-12-08T06:39:31;17.23;;;5.25;;
40807;SDS011;26523;52.504;13.498;2022-12-08T06:41:57;13.93;;;4.97;;
40807;SDS011;26523;52.504;13.498;2022-12-08T06:44:41;17.33;;;5.97;;
40807;SDS011;26523;52.504;13.498;2022-12-08T06:47:07;14.65;;;5.63;;
40807;SDS011;26523;52.504;13.498;2022-12-08T06:49:33;12.00;;;5.50;;
40807;SDS011;26523;52.504;13.498;2022-12-08T06:51:59;14.00;;;5.85;;
40807;SDS011;26523;52.504;13.498;2022-12-08T06:54:25;9.18;;;4.72;;
40807;SDS011;26523;52.504;13.498;2022-12-08T06:56:51;15.18;;;5.63;;
40807;SDS011;26523;52.504;13.498;2022-12-08T06:59:17;11.45;;;4.72;;
40807;SDS011;26523;52.504;13.498;2022-12-08T07:01:43;12.18;;;4.97;;
40807;SDS011;26523;52.504;13.498;2022-12-08T07:04:09;12.88;;;5.45;;
40807;SDS011;26523;52.504;13.498;2022-12-08T07:06:35;9.68;;;4.50;;
40807;SDS011;26523;52.504;13.498;2022-12-08T07:09:01;16.02;;;5.35;;
40807;SDS011;26523;52.504;13.498;2022-12-08T07:11:27;17.48;;;5.78;;
40807;SDS011;26523;52.504;13.498;2022-12-08T07:13:56;13.65;;;4.90;;
40807;SDS011;26523;52.504;13.498;2022-12-08T07:16:22;14.57;;;6.65;;
40807;SDS011;26523;52.504;13.498;2022-12-08T07:18:48;16.45;;;5.05;;
40807;SDS011;26523;52.504;13.498;2022-12-08T07:21:14;13.82;;;5.57;;
40807;SDS011;26523;52.504;13.498;2022-12-08T07:23:41;12.10;;;4.80;;
40807;SDS011;26523;52.504;13.498;2022-12-08T07:26:09;25.98;;;5.75;;
40807;SDS011;26523;52.504;13.498;2022-12-08T07:28:36;15.07;;;4.57;;
40807;SDS011;26523;52.504;13.498;2022-12-08T07:31:04;6.65;;;3.28;;
40807;SDS011;26523;52.504;13.498;2022-12-08T07:33:31;11.57;;;4.88;;
40807;SDS011;26523;52.504;13.498;2022-12-08T07:35:58;15.95;;;5.65;;
40807;SDS011;26523;52.504;13.498;2022-12-08T07:38:25;12.70;;;5.15;;
40807;SDS011;26523;52.504;13.498;2022-12-08T07:40:52;11.95;;;5.57;;
40807;SDS011;26523;52.504;13.498;2022-12-08T07:43:18;11.57;;;4.50;;
40807;SDS011;26523;52.504;13.498;2022-12-08T07:45:44;12.45;;;5.03;;
40807;SDS011;26523;52.504;13.498;2022-12-08T07:48:10;9.25;;;4.35;;
40807;SDS011;26523;52.504;13.498;2022-12-08T07:50:36;13.32;;;4.43;;
40807;SDS011;26523;52.504;13.498;2022-12-08T07:53:03;18.75;;;5.65;;
40807;SDS011;26523;52.504;13.498;2022-12-08T07:55:29;9.80;;;4.88;;
40807;SDS011;26523;52.504;13.498;2022-12-08T07:57:55;10.45;;;4.35;;
40807;SDS011;26523;52.504;13.498;2022-12-08T08:00:21;10.48;;;4.20;;
40807;SDS011;26523;52.504;13.498;2022-12-08T08:02:46;18.55;;;5.20;;
40807;SDS011;26523;52.504;13.498;2022-12-08T08:05:12;11.25;;;3.50;;
40807;SDS011;26523;52.504;13.498;2022-12-08T08:07:38;19.90;;;5.07;;
40807;SDS011;26523;52.504;13.498;2022-12-08T08:10:09;13.27;;;5.43;;
40807;SDS011;26523;52.504;13.498;2022-12-08T08:12:36;12.90;;;5.47;;
40807;SDS011;26523;52.504;13.498;2022-12-08T08:15:04;12.23;;;4.53;;
40807;SDS011;26523;52.504;13.498;2022-12-08T08:17:32;16.35;;;6.05;;
40807;SDS011;26523;52.504;13.498;2022-12-08T08:19:58;15.80;;;6.20;;
40807;SDS011;26523;52.504;13.498;2022-12-08T08:22:25;20.50;;;5.88;;
40807;SDS011;26523;52.504;13.498;2022-12-08T08:24:51;13.13;;;4.80;;
40807;SDS011;26523;52.504;13.498;2022-12-08T08:27:17;11.50;;;4.50;;
40807;SDS011;26523;52.504;13.498;2022-12-08T08:29:43;11.90;;;4.82;;
40807;SDS011;26523;52.504;13.498;2022-12-08T08:32:09;14.65;;;5.28;;
40807;SDS011;26523;52.504;13.498;2022-12-08T08:34:35;11.02;;;4.32;;
40807;SDS011;26523;52.504;13.498;2022-12-08T08:37:01;14.25;;;4.22;;
40807;SDS011;26523;52.504;13.498;2022-12-08T08:39:26;19.00;;;5.32;;
40807;SDS011;26523;52.504;13.498;2022-12-08T08:41:54;10.55;;;4.03;;
40807;SDS011;26523;52.504;13.498;2022-12-08T08:44:20;17.00;;;5.50;;
40807;SDS011;26523;52.504;13.498;2022-12-08T08:46:45;15.68;;;4.57;;
40807;SDS011;26523;52.504;13.498;2022-12-08T08:49:11;12.63;;;5.28;;
40807;SDS011;26523;52.504;13.498;2022-12-08T08:51:37;19.17;;;6.65;;
40807;SDS011;26523;52.504;13.498;2022-12-08T08:54:02;13.20;;;6.13;;
40807;SDS011;26523;52.504;13.498;2022-12-08T08:56:28;13.95;;;5.03;;
40807;SDS011;26523;52.504;13.498;2022-12-08T08:58:54;14.52;;;4.90;;
40807;SDS011;26523;52.504;13.498;2022-12-08T09:01:21;16.08;;;6.25;;
40807;SDS011;26523;52.504;13.498;2022-12-08T09:03:51;15.23;;;5.25;;
40807;SDS011;26523;52.504;13.498;2022-12-08T09:06:18;12.70;;;5.55;;
40807;SDS011;26523;52.504;13.498;2022-12-08T09:08:44;16.70;;;5.78;;
40807;SDS011;26523;52.504;13.498;2022-12-08T09:11:11;18.10;;;5.97;;
40807;SDS011;26523;52.504;13.498;2022-12-08T09:13:37;13.23;;;4.95;;
40807;SDS011;26523;52.504;13.498;2022-12-08T09:16:03;11.18;;;5.65;;
40807;SDS011;26523;52.504;13.498;2022-12-08T09:18:31;11.43;;;5.18;;
40807;SDS011;26523;52.504;13.498;2022-12-08T09:21:02;10.93;;;4.82;;
40807;SDS011;26523;52.504;13.498;2022-12-08T09:23:29;18.60;;;6.65;;
40807;SDS011;26523;52.504;13.498;2022-12-08T09:25:55;14.52;;;4.95;;
40807;SDS011;26523;52.504;13.498;2022-12-08T09:28:21;13.63;;;5.53;;
40807;SDS011;26523;52.504;13.498;2022-12-08T09:30:46;18.58;;;6.25;;
40807;SDS011;26523;52.504;13.498;2022-12-08T09:33:12;11.00;;;4.53;;
40807;SDS011;26523;52.504;13.498;2022-12-08T09:35:37;15.05;;;5.47;;
40807;SDS011;26523;52.504;13.498;2022-12-08T09:38:03;15.77;;;4.97;;
40807;SDS011;26523;52.504;13.498;2022-12-08T09:40:29;10.10;;;4.63;;
40807;SDS011;26523;52.504;13.498;2022-12-08T09:45:48;21.85;;;5.45;;
40807;SDS011;26523;52.504;13.498;2022-12-08T09:48:21;13.70;;;5.53;;
40807;SDS011;26523;52.504;13.498;2022-12-08T09:50:54;18.95;;;5.03;;
40807;SDS011;26523;52.504;13.498;2022-12-08T09:53:28;15.48;;;6.18;;
40807;SDS011;26523;52.504;13.498;2022-12-08T10:01:17;21.05;;;5.20;;
40807;SDS011;26523;52.504;13.498;2022-12-08T10:03:44;13.73;;;5.00;;
40807;SDS011;26523;52.504;13.498;2022-12-08T10:06:14;13.25;;;5.50;;
40807;SDS011;26523;52.504;13.498;2022-12-08T10:14:42;10.30;;;4.55;;
40807;SDS011;26523;52.504;13.498;2022-12-08T10:17:21;10.68;;;4.70;;
40807;SDS011;26523;52.504;13.498;2022-12-08T10:19:52;14.05;;;5.25;;
40807;SDS011;26523;52.504;13.498;2022-12-08T10:22:24;19.02;;;5.35;;
40807;SDS011;26523;52.504;13.498;2022-12-08T10:24:56;9.45;;;4.60;;
40807;SDS011;26523;52.504;13.498;2022-12-08T10:27:29;14.77;;;5.15;;
40807;SDS011;26523;52.504;13.498;2022-12-08T10:29:58;13.15;;;4.90;;
40807;SDS011;26523;52.504;13.498;2022-12-08T10:32:23;12.93;;;5.00;;
40807;SDS011;26523;52.504;13.498;2022-12-08T10:37:32;13.73;;;5.05;;
40807;SDS011;26523;52.504;13.498;2022-12-08T10:40:04;21.45;;;5.22;;
40807;SDS011;26523;52.504;13.498;2022-12-08T10:42:32;8.85;;;4.10;;
40807;SDS011;26523;52.504;13.498;2022-12-08T10:47:39;13.13;;;5.13;;
40807;SDS011;26523;52.504;13.498;2022-12-08T10:55:23;11.65;;;4.88;;
40807;SDS011;26523;52.504;13.498;2022-12-08T10:57:49;12.55;;;5.45;;
40807;SDS011;26523;52.504;13.498;2022-12-08T11:00:16;11.65;;;5.40;;
40807;SDS011;26523;52.504;13.498;2022-12-08T11:03:00;12.80;;;5.25;;
40807;SDS011;26523;52.504;13.498;2022-12-08T11:05:30;11.43;;;5.05;;
40807;SDS011;26523;52.504;13.498;2022-12-08T11:07:59;10.07;;;4.85;;
40807;SDS011;26523;52.504;13.498;2022-12-08T11:10:36;11.52;;;4.75;;
40807;SDS011;26523;52.504;13.498;2022-12-08T11:13:15;19.02;;;5.30;;
40807;SDS011;26523;52.504;13.498;2022-12-08T11:15:45;13.45;;;5.47;;
40807;SDS011;26523;52.504;13.498;2022-12-08T11:18:38;23.70;;;5.07;;
40807;SDS011;26523;52.504;13.498;2022-12-08T11:21:06;8.20;;;3.55;;
40807;SDS011;26523;52.504;13.498;2022-12-08T11:23:37;13.43;;;3.78;;
40807;SDS011;26523;52.504;13.498;2022-12-08T11:26:16;14.13;;;4.72;;
40807;SDS011;26523;52.504;13.498;2022-12-08T11:31:21;11.60;;;4.35;;
40807;SDS011;26523;52.504;13.498;2022-12-08T11:33:52;21.45;;;5.25;;
40807;SDS011;26523;52.504;13.498;2022-12-08T11:36:19;10.05;;;4.20;;
40807;SDS011;26523;52.504;13.498;2022-12-08T11:38:47;15.73;;;4.78;;
40807;SDS011;26523;52.504;13.498;2022-12-08T11:41:21;11.82;;;4.53;;
40807;SDS011;26523;52.504;13.498;2022-12-08T11:46:48;9.65;;;3.70;;
40807;SDS011;26523;52.504;13.498;2022-12-08T11:49:17;9.55;;;4.22;;
40807;SDS011;26523;52.504;13.498;2022-12-08T11:51:58;10.57;;;4.25;;
40807;SDS011;26523;52.504;13.498;2022-12-08T11:54:39;8.98;;;3.75;;
40807;SDS011;26523;52.504;13.498;2022-12-08T11:57:17;12.18;;;5.95;;
40807;SDS011;26523;52.504;13.498;2022-12-08T11:59:50;12.60;;;4.25;;
40807;SDS011;26523;52.504;13.498;2022-12-08T12:02:21;16.40;;;7.65;;
40807;SDS011;26523;52.504;13.498;2022-12-08T12:18:13;15.40;;;3.85;;
40807;SDS011;26523;52.504;13.498;2022-12-08T12:21:21;10.43;;;3.95;;
40807;SDS011;26523;52.504;13.498;2022-12-08T12:29:43;9.77;;;3.90;;
40807;SDS011;26523;52.504;13.498;2022-12-08T12:32:16;12.15;;;4.40;;
40807;SDS011;26523;52.504;13.498;2022-12-08T12:37:15;13.98;;;4.82;;
40807;SDS011;26523;52.504;13.498;2022-12-08T12:39:47;9.90;;;3.90;;
40807;SDS011;26523;52.504;13.498;2022-12-08T13:03:39;11.43;;;3.77;;
40807;SDS011;26523;52.504;13.498;2022-12-08T13:06:08;9.40;;;5.00;;
40807;SDS011;26523;52.504;13.498;2022-12-08T13:08:38;11.95;;;4.47;;
40807;SDS011;26523;52.504;13.498;2022-12-08T13:11:14;10.27;;;4.28;;
40807;SDS011;26523;52.504;13.498;2022-12-08T13:13:58;8.07;;;4.13;;
40807;SDS011;26523;52.504;13.498;2022-12-08T13:16:30;11.23;;;4.47;;
40807;SDS011;26523;52.504;13.498;2022-12-08T13:18:58;11.20;;;4.85;;
40807;SDS011;26523;52.504;13.498;2022-12-08T13:21:35;9.35;;;4.28;;
40807;SDS011;26523;52.504;13.498;2022-12-08T13:27:26;10.68;;;4.97;;
40807;SDS011;26523;52.504;13.498;2022-12-08T13:29:38;13.27;;;4.65;;
40807;SDS011;26523;52.504;13.498;2022-12-08T13:34:54;12.68;;;3.83;;
40807;SDS011;26523;52.504;13.498;2022-12-08T13:37:31;13.30;;;5.07;;
40807;SDS011;26523;52.504;13.498;2022-12-08T13:40:15;9.10;;;4.80;;
40807;SDS011;26523;52.504;13.498;2022-12-08T13:42:47;15.85;;;5.38;;
40807;SDS011;26523;52.504;13.498;2022-12-08T13:45:26;12.68;;;5.72;;
40807;SDS011;26523;52.504;13.498;2022-12-08T13:48:08;11.57;;;5.18;;
40807;SDS011;26523;52.504;13.498;2022-12-08T13:51:05;12.05;;;5.03;;
40807;SDS011;26523;52.504;13.498;2022-12-08T13:53:40;14.32;;;5.57;;
40807;SDS011;26523;52.504;13.498;2022-12-08T13:56:10;9.60;;;4.72;;
40807;SDS011;26523;52.504;13.498;2022-12-08T13:58:37;11.93;;;5.30;;
40807;SDS011;26523;52.504;13.498;2022-12-08T14:01:12;11.45;;;5.28;;
40807;SDS011;26523;52.504;13.498;2022-12-08T14:06:35;11.68;;;4.82;;
40807;SDS011;26523;52.504;13.498;2022-12-08T14:09:04;10.98;;;4.68;;
40807;SDS011;26523;52.504;13.498;2022-12-08T14:11:35;11.07;;;4.70;;
40807;SDS011;26523;52.504;13.498;2022-12-08T14:14:23;11.25;;;4.82;;
40807;SDS011;26523;52.504;13.498;2022-12-08T14:17:17;11.75;;;4.63;;
40807;SDS011;26523;52.504;13.498;2022-12-08T14:19:52;10.98;;;4.82;;
40807;SDS011;26523;52.504;13.498;2022-12-08T14:22:22;9.18;;;4.22;;
40807;SDS011;26523;52.504;13.498;2022-12-08T14:24:52;10.35;;;4.25;;
40807;SDS011;26523;52.504;13.498;2022-12-08T14:27:19;9.57;;;4.45;;
40807;SDS011;26523;52.504;13.498;2022-12-08T14:32:53;11.05;;;3.55;;
40807;SDS011;26523;52.504;13.498;2022-12-08T14:35:24;10.48;;;2.90;;
40807;SDS011;26523;52.504;13.498;2022-12-08T14:37:54;8.93;;;3.65;;
40807;SDS011;26523;52.504;13.498;2022-12-08T14:40:23;7.63;;;3.55;;
40807;SDS011;26523;52.504;13.498;2022-12-08T14:43:18;8.25;;;3.30;;
40807;SDS011;26523;52.504;13.498;2022-12-08T14:56:04;15.75;;;5.50;;
40807;SDS011;26523;52.504;13.498;2022-12-08T14:59:06;12.65;;;4.68;;
40807;SDS011;26523;52.504;13.498;2022-12-08T15:01:44;11.50;;;4.55;;
40807;SDS011;26523;52.504;13.498;2022-12-08T15:06:36;8.48;;;4.03;;
40807;SDS011;26523;52.504;13.498;2022-12-08T15:09:31;12.90;;;4.32;;
40807;SDS011;26523;52.504;13.498;2022-12-08T15:12:05;11.32;;;4.60;;
40807;SDS011;26523;52.504;13.498;2022-12-08T15:14:33;10.75;;;3.97;;
40807;SDS011;26523;52.504;13.498;2022-12-08T15:17:01;8.20;;;4.47;;
40807;SDS011;26523;52.504;13.498;2022-12-08T15:19:31;10.70;;;3.90;;
40807;SDS011;26523;52.504;13.498;2022-12-08T15:22:00;9.07;;;3.38;;
40807;SDS011;26523;52.504;13.498;2022-12-08T15:24:43;7.32;;;4.15;;
40807;SDS011;26523;52.504;13.498;2022-12-08T15:27:11;8.63;;;4.00;;
40807;SDS011;26523;52.504;13.498;2022-12-08T15:29:42;12.27;;;4.40;;
40807;SDS011;26523;52.504;13.498;2022-12-08T15:32:08;9.55;;;3.67;;
40807;SDS011;26523;52.504;13.498;2022-12-08T15:34:35;5.70;;;3.00;;
40807;SDS011;26523;52.504;13.498;2022-12-08T15:37:01;11.55;;;3.70;;
40807;SDS011;26523;52.504;13.498;2022-12-08T15:41:59;8.07;;;3.83;;
40807;SDS011;26523;52.504;13.498;2022-12-08T15:44:27;8.40;;;3.38;;
40807;SDS011;26523;52.504;13.498;2022-12-08T15:46:53;7.18;;;2.80;;
40807;SDS011;26523;52.504;13.498;2022-12-08T15:49:20;6.32;;;3.10;;
40807;SDS011;26523;52.504;13.498;2022-12-08T15:51:47;8.63;;;3.65;;
40807;SDS011;26523;52.504;13.498;2022-12-08T15:54:14;6.50;;;3.53;;
40807;SDS011;26523;52.504;13.498;2022-12-08T15:56:43;8.88;;;3.70;;
40807;SDS011;26523;52.504;13.498;2022-12-08T15:59:21;8.48;;;4.15;;
40807;SDS011;26523;52.504;13.498;2022-12-08T16:01:48;8.63;;;4.05;;
40807;SDS011;26523;52.504;13.498;2022-12-08T16:04:15;11.35;;;4.13;;
40807;SDS011;26523;52.504;13.498;2022-12-08T16:06:49;10.73;;;3.90;;
40807;SDS011;26523;52.504;13.498;2022-12-08T16:11:42;12.80;;;4.68;;
40807;SDS011;26523;52.504;13.498;2022-12-08T16:16:53;9.85;;;3.50;;
40807;SDS011;26523;52.504;13.498;2022-12-08T16:19:19;8.70;;;4.10;;
40807;SDS011;26523;52.504;13.498;2022-12-08T16:21:44;10.75;;;3.88;;
40807;SDS011;26523;52.504;13.498;2022-12-08T16:24:10;8.55;;;4.45;;
40807;SDS011;26523;52.504;13.498;2022-12-08T16:26:36;10.93;;;4.72;;
40807;SDS011;26523;52.504;13.498;2022-12-08T16:29:02;8.85;;;4.40;;
40807;SDS011;26523;52.504;13.498;2022-12-08T16:31:28;11.43;;;4.05;;
40807;SDS011;26523;52.504;13.498;2022-12-08T16:33:54;12.40;;;4.50;;
40807;SDS011;26523;52.504;13.498;2022-12-08T16:36:20;12.68;;;4.57;;
40807;SDS011;26523;52.504;13.498;2022-12-08T16:38:45;10.00;;;4.05;;
40807;SDS011;26523;52.504;13.498;2022-12-08T16:41:14;7.85;;;3.85;;
40807;SDS011;26523;52.504;13.498;2022-12-08T16:44:03;9.90;;;4.80;;
40807;SDS011;26523;52.504;13.498;2022-12-08T16:46:30;9.10;;;4.05;;
40807;SDS011;26523;52.504;13.498;2022-12-08T16:48:56;10.10;;;5.03;;
40807;SDS011;26523;52.504;13.498;2022-12-08T16:51:23;9.32;;;4.50;;
40807;SDS011;26523;52.504;13.498;2022-12-08T16:53:49;10.35;;;4.15;;